createdAt,value
2017-12-25T00:00:55.051Z,7.81
2017-12-25T00:01:54.964Z,7.87
2017-12-25T00:02:54.921Z,7.87
2017-12-25T00:03:54.876Z,7.81
2017-12-25T00:04:54.855Z,7.89
2017-12-25T00:05:54.827Z,7.69
2017-12-25T00:06:54.748Z,7.78
2017-12-25T00:07:54.696Z,7.72
2017-12-25T00:08:54.661Z,7.74
2017-12-25T00:09:54.634Z,7.69
2017-12-25T00:10:54.579Z,7.62
2017-12-25T00:11:54.545Z,7.62
2017-12-25T00:12:54.501Z,7.63
2017-12-25T00:13:54.452Z,7.62
2017-12-25T00:14:54.408Z,7.63
2017-12-25T00:15:54.375Z,7.75
2017-12-25T00:16:54.343Z,7.78
2017-12-25T00:17:54.392Z,7.72
2017-12-25T00:18:54.250Z,7.71
2017-12-25T00:19:54.218Z,7.72
2017-12-25T00:20:54.186Z,7.74
2017-12-25T00:21:54.112Z,7.74
2017-12-25T00:22:54.076Z,7.69
2017-12-25T00:23:54.029Z,7.62
2017-12-25T00:24:53.992Z,7.71
2017-12-25T00:25:53.955Z,7.67
2017-12-25T00:26:53.903Z,7.69
2017-12-25T00:27:53.861Z,7.72
2017-12-25T00:28:53.833Z,7.72
2017-12-25T00:29:53.773Z,7.72
2017-12-25T00:30:53.745Z,7.75
2017-12-25T00:31:53.711Z,7.66
2017-12-25T00:32:53.660Z,7.75
2017-12-25T00:33:53.617Z,7.58
2017-12-25T00:34:53.554Z,7.60
2017-12-25T00:35:53.516Z,7.62
2017-12-25T00:36:53.480Z,7.60
2017-12-25T00:37:53.441Z,7.59
2017-12-25T00:38:53.387Z,7.62
2017-12-25T00:39:53.346Z,7.60
2017-12-25T00:40:53.363Z,7.56
2017-12-25T00:41:53.264Z,7.55
2017-12-25T00:42:53.216Z,7.59
2017-12-25T00:43:53.192Z,7.66
2017-12-25T00:44:53.132Z,7.78
2017-12-25T00:45:53.098Z,7.75
2017-12-25T00:46:53.054Z,7.72
2017-12-25T00:47:53.039Z,7.82
2017-12-25T00:48:52.967Z,7.75
2017-12-25T00:49:52.919Z,7.71
2017-12-25T00:50:52.876Z,7.71
2017-12-25T00:51:52.836Z,7.67
2017-12-25T00:52:52.798Z,7.72
2017-12-25T00:53:52.740Z,7.72
2017-12-25T00:54:52.730Z,7.78
2017-12-25T00:55:52.675Z,7.77
2017-12-25T00:56:52.629Z,7.75
2017-12-25T00:57:52.588Z,7.71
2017-12-25T00:58:52.540Z,7.81
2017-12-25T00:59:52.492Z,7.77
2017-12-25T01:00:52.467Z,7.74
2017-12-25T01:01:52.414Z,7.69
2017-12-25T01:02:52.389Z,7.75
2017-12-25T01:03:52.325Z,7.71
2017-12-25T01:04:52.295Z,7.79
2017-12-25T01:05:52.262Z,7.72
2017-12-25T01:06:52.195Z,7.72
2017-12-25T01:07:52.210Z,7.78
2017-12-25T01:08:52.115Z,7.75
2017-12-25T01:09:52.076Z,7.62
2017-12-25T01:10:52.060Z,7.62
2017-12-25T01:11:51.986Z,7.59
2017-12-25T01:12:51.974Z,7.63
2017-12-25T01:13:51.913Z,7.59
2017-12-25T01:14:51.861Z,7.62
2017-12-25T01:15:51.820Z,7.69
2017-12-25T01:16:51.779Z,7.72
2017-12-25T01:17:51.788Z,7.62
2017-12-25T01:18:51.706Z,7.71
2017-12-25T01:19:51.662Z,7.66
2017-12-25T01:20:51.630Z,7.67
2017-12-25T01:21:51.566Z,7.69
2017-12-25T01:22:51.543Z,7.71
2017-12-25T01:23:51.488Z,7.74
2017-12-25T01:24:51.442Z,7.71
2017-12-25T01:25:51.390Z,7.67
2017-12-25T01:26:51.381Z,7.66
2017-12-25T01:27:51.308Z,7.69
2017-12-25T01:28:51.814Z,7.72
2017-12-25T01:29:51.225Z,7.77
2017-12-25T01:30:51.178Z,7.75
2017-12-25T01:31:51.139Z,7.75
2017-12-25T01:32:51.099Z,7.82
2017-12-25T01:33:59.248Z,7.69
2017-12-25T01:34:51.002Z,7.67
2017-12-25T01:35:50.964Z,7.63
2017-12-25T01:36:50.917Z,7.78
2017-12-25T01:37:50.896Z,7.78
2017-12-25T01:38:50.831Z,7.59
2017-12-25T01:39:50.797Z,7.67
2017-12-25T01:40:50.759Z,7.66
2017-12-25T01:41:50.708Z,7.60
2017-12-25T01:42:50.680Z,7.60
2017-12-25T01:44:05.435Z,7.58
2017-12-25T01:44:50.605Z,7.59
2017-12-25T01:45:50.555Z,7.59
2017-12-25T01:46:50.519Z,7.66
2017-12-25T01:47:50.463Z,7.69
2017-12-25T01:48:50.421Z,7.71
2017-12-25T01:49:50.372Z,7.69
2017-12-25T01:50:50.347Z,7.62
2017-12-25T01:51:50.284Z,7.69
2017-12-25T01:52:50.254Z,7.69
2017-12-25T01:53:50.209Z,7.72
2017-12-25T01:54:50.172Z,7.78
2017-12-25T01:55:50.129Z,7.74
2017-12-25T01:56:50.120Z,7.75
2017-12-25T01:57:50.123Z,7.74
2017-12-25T01:58:50.003Z,7.75
2017-12-25T01:59:49.974Z,7.72
2017-12-25T02:00:49.930Z,7.62
2017-12-25T02:01:49.877Z,7.72
2017-12-25T02:02:49.828Z,7.59
2017-12-25T02:03:49.786Z,7.59
2017-12-25T02:04:49.740Z,7.60
2017-12-25T02:05:49.704Z,7.59
2017-12-25T02:06:49.666Z,7.60
2017-12-25T02:07:49.609Z,7.62
2017-12-25T02:08:49.581Z,7.60
2017-12-25T02:09:49.526Z,7.53
2017-12-25T02:10:49.488Z,7.59
2017-12-25T02:11:49.520Z,7.59
2017-12-25T02:12:49.407Z,7.52
2017-12-25T02:13:49.371Z,7.45
2017-12-25T02:14:49.321Z,7.37
2017-12-25T02:15:49.315Z,7.34
2017-12-25T02:16:49.252Z,7.34
2017-12-25T02:17:49.230Z,7.44
2017-12-25T02:18:49.149Z,7.42
2017-12-25T02:19:49.113Z,7.41
2017-12-25T02:20:49.071Z,7.40
2017-12-25T02:21:49.020Z,7.44
2017-12-25T02:22:48.977Z,7.42
2017-12-25T02:23:48.941Z,7.41
2017-12-25T02:24:48.899Z,7.52
2017-12-25T02:25:48.858Z,7.49
2017-12-25T02:26:48.844Z,7.52
2017-12-25T02:27:48.792Z,7.53
2017-12-25T02:28:48.736Z,7.44
2017-12-25T02:29:48.688Z,7.50
2017-12-25T02:30:48.670Z,7.52
2017-12-25T02:31:48.608Z,7.56
2017-12-25T02:32:48.562Z,7.50
2017-12-25T02:33:48.513Z,7.60
2017-12-25T02:34:48.492Z,7.62
2017-12-25T02:35:48.431Z,7.60
2017-12-25T02:36:48.421Z,7.59
2017-12-25T02:37:48.346Z,7.59
2017-12-25T02:38:48.316Z,7.59
2017-12-25T02:39:48.253Z,7.56
2017-12-25T02:40:48.221Z,7.52
2017-12-25T02:41:48.168Z,7.60
2017-12-25T02:42:48.131Z,7.53
2017-12-25T02:43:48.088Z,7.50
2017-12-25T02:44:48.174Z,7.58
2017-12-25T02:45:48.000Z,7.50
2017-12-25T02:46:47.972Z,7.58
2017-12-25T02:47:47.916Z,7.47
2017-12-25T02:48:47.896Z,7.50
2017-12-25T02:49:47.845Z,7.34
2017-12-25T02:50:47.851Z,7.49
2017-12-25T02:51:47.748Z,7.44
2017-12-25T02:52:47.717Z,7.45
2017-12-25T02:53:47.684Z,7.38
2017-12-25T02:54:47.625Z,7.58
2017-12-25T02:55:47.589Z,7.50
2017-12-25T02:56:47.533Z,7.50
2017-12-25T02:57:47.510Z,7.56
2017-12-25T02:58:47.448Z,7.47
2017-12-25T02:59:47.416Z,7.47
2017-12-25T03:00:47.388Z,7.40
2017-12-25T03:01:47.320Z,7.44
2017-12-25T03:02:47.284Z,7.49
2017-12-25T03:03:47.245Z,7.41
2017-12-25T03:04:47.196Z,7.40
2017-12-25T03:05:47.156Z,7.50
2017-12-25T03:06:47.102Z,7.50
2017-12-25T03:07:47.066Z,7.47
2017-12-25T03:08:47.023Z,7.44
2017-12-25T03:09:47.049Z,7.45
2017-12-25T03:10:46.951Z,7.45
2017-12-25T03:11:46.904Z,7.38
2017-12-25T03:12:46.855Z,7.44
2017-12-25T03:13:46.818Z,7.41
2017-12-25T03:14:46.773Z,7.42
2017-12-25T03:15:46.741Z,7.42
2017-12-25T03:16:46.710Z,7.40
2017-12-25T03:17:46.761Z,7.47
2017-12-25T03:18:46.629Z,7.42
2017-12-25T03:19:46.557Z,7.42
2017-12-25T03:20:46.533Z,7.35
2017-12-25T03:21:46.484Z,7.40
2017-12-25T03:22:46.446Z,7.34
2017-12-25T03:23:46.386Z,7.44
2017-12-25T03:24:46.373Z,7.44
2017-12-25T03:25:46.299Z,7.45
2017-12-25T03:26:46.267Z,7.32
2017-12-25T03:27:46.228Z,7.34
2017-12-25T03:28:46.192Z,7.38
2017-12-25T03:29:46.147Z,7.32
2017-12-25T03:30:46.089Z,7.34
2017-12-25T03:31:46.047Z,7.32
2017-12-25T03:32:46.009Z,7.27
2017-12-25T03:33:45.961Z,7.35
2017-12-25T03:34:45.934Z,7.27
2017-12-25T03:35:45.882Z,7.35
2017-12-25T03:36:45.836Z,7.31
2017-12-25T03:37:45.787Z,7.32
2017-12-25T03:38:45.766Z,7.34
2017-12-25T03:39:45.722Z,7.35
2017-12-25T03:40:45.663Z,7.35
2017-12-25T03:41:45.623Z,7.37
2017-12-25T03:42:45.579Z,7.40
2017-12-25T03:43:45.530Z,7.41
2017-12-25T03:44:45.498Z,7.42
2017-12-25T03:45:45.454Z,7.34
2017-12-25T03:46:45.403Z,7.35
2017-12-25T03:47:45.391Z,7.35
2017-12-25T03:48:45.339Z,7.31
2017-12-25T03:49:45.293Z,7.32
2017-12-25T03:50:45.243Z,7.24
2017-12-25T03:51:45.205Z,7.27
2017-12-25T03:52:45.161Z,7.27
2017-12-25T03:53:45.109Z,7.31
2017-12-25T03:54:45.084Z,7.19
2017-12-25T03:55:45.036Z,7.29
2017-12-25T03:56:44.982Z,7.26
2017-12-25T03:57:44.939Z,7.24
2017-12-25T03:58:44.900Z,7.19
2017-12-25T03:59:44.864Z,7.24
2017-12-25T04:00:44.811Z,7.20
2017-12-25T04:01:44.764Z,7.20
2017-12-25T04:02:44.766Z,7.16
2017-12-25T04:03:44.684Z,7.15
2017-12-25T04:04:44.637Z,7.16
2017-12-25T04:05:44.600Z,7.20
2017-12-25T04:06:44.555Z,7.16
2017-12-25T04:07:44.512Z,7.09
2017-12-25T04:08:44.477Z,7.12
2017-12-25T04:09:44.440Z,7.12
2017-12-25T04:10:44.386Z,7.13
2017-12-25T04:11:44.338Z,7.13
2017-12-25T04:12:44.310Z,7.05
2017-12-25T04:13:44.263Z,7.02
2017-12-25T04:14:44.245Z,7.12
2017-12-25T04:15:44.184Z,7.13
2017-12-25T04:16:44.139Z,7.16
2017-12-25T04:17:45.228Z,7.12
2017-12-25T04:18:44.046Z,7.15
2017-12-25T04:19:44.085Z,7.12
2017-12-25T04:20:43.972Z,7.02
2017-12-25T04:21:43.921Z,7.09
2017-12-25T04:22:43.890Z,7.13
2017-12-25T04:23:43.839Z,7.15
2017-12-25T04:24:43.795Z,7.09
2017-12-25T04:25:43.743Z,6.99
2017-12-25T04:26:43.755Z,7.01
2017-12-25T04:27:43.679Z,7.13
2017-12-25T04:28:43.716Z,6.99
2017-12-25T04:29:43.609Z,6.99
2017-12-25T04:30:43.599Z,7.05
2017-12-25T04:31:44.675Z,7.02
2017-12-25T04:32:43.465Z,7.05
2017-12-25T04:33:43.413Z,6.98
2017-12-25T04:34:43.372Z,7.01
2017-12-25T04:35:43.319Z,6.94
2017-12-25T04:36:43.280Z,6.98
2017-12-25T04:37:43.234Z,6.98
2017-12-25T04:38:43.202Z,6.99
2017-12-25T04:39:43.154Z,6.98
2017-12-25T04:40:43.106Z,6.97
2017-12-25T04:41:43.091Z,7.01
2017-12-25T04:42:43.018Z,7.01
2017-12-25T04:43:42.992Z,6.97
2017-12-25T04:44:42.937Z,7.01
2017-12-25T04:45:43.149Z,6.98
2017-12-25T04:46:42.861Z,7.01
2017-12-25T04:47:42.821Z,7.02
2017-12-25T04:48:42.770Z,7.02
2017-12-25T04:49:42.731Z,6.94
2017-12-25T04:50:42.684Z,7.01
2017-12-25T04:51:42.650Z,6.89
2017-12-25T04:52:42.603Z,6.91
2017-12-25T04:53:42.558Z,6.89
2017-12-25T04:54:42.506Z,6.94
2017-12-25T04:55:42.465Z,7.01
2017-12-25T04:56:42.423Z,6.87
2017-12-25T04:57:42.393Z,6.86
2017-12-25T04:58:42.358Z,6.97
2017-12-25T04:59:42.294Z,6.81
2017-12-25T05:00:42.294Z,6.95
2017-12-25T05:01:42.216Z,6.94
2017-12-25T05:02:42.162Z,6.91
2017-12-25T05:03:42.140Z,6.86
2017-12-25T05:04:42.077Z,6.87
2017-12-25T05:05:42.040Z,6.94
2017-12-25T05:06:42.015Z,6.95
2017-12-25T05:07:41.956Z,6.91
2017-12-25T05:08:41.943Z,6.89
2017-12-25T05:09:41.869Z,6.89
2017-12-25T05:10:41.842Z,6.91
2017-12-25T05:11:41.788Z,6.91
2017-12-25T05:12:41.748Z,6.81
2017-12-25T05:13:41.697Z,6.83
2017-12-25T05:14:41.692Z,6.76
2017-12-25T05:15:41.604Z,6.81
2017-12-25T05:16:41.587Z,6.90
2017-12-25T05:17:41.624Z,6.81
2017-12-25T05:18:41.492Z,6.76
2017-12-25T05:19:41.449Z,6.89
2017-12-25T05:20:41.420Z,6.69
2017-12-25T05:21:41.363Z,6.83
2017-12-25T05:22:41.316Z,6.73
2017-12-25T05:23:41.310Z,6.73
2017-12-25T05:24:41.245Z,6.84
2017-12-25T05:25:41.196Z,6.72
2017-12-25T05:26:41.141Z,6.76
2017-12-25T05:27:41.083Z,6.79
2017-12-25T05:28:41.068Z,6.81
2017-12-25T05:29:41.004Z,6.72
2017-12-25T05:30:40.961Z,6.73
2017-12-25T05:31:40.956Z,6.73
2017-12-25T05:32:40.877Z,6.72
2017-12-25T05:33:40.857Z,6.71
2017-12-25T05:34:40.798Z,6.63
2017-12-25T05:35:40.753Z,6.73
2017-12-25T05:36:40.739Z,6.69
2017-12-25T05:37:40.657Z,6.76
2017-12-25T05:38:40.629Z,6.68
2017-12-25T05:39:40.565Z,6.71
2017-12-25T05:40:40.540Z,6.72
2017-12-25T05:41:40.504Z,6.65
2017-12-25T05:42:40.448Z,6.71
2017-12-25T05:43:40.407Z,6.72
2017-12-25T05:44:40.353Z,6.71
2017-12-25T05:45:40.327Z,6.69
2017-12-25T05:46:40.296Z,6.66
2017-12-25T05:47:40.260Z,6.73
2017-12-25T05:48:40.196Z,6.73
2017-12-25T05:49:40.162Z,6.66
2017-12-25T05:50:40.109Z,6.72
2017-12-25T05:51:40.067Z,6.76
2017-12-25T05:52:40.045Z,6.61
2017-12-25T05:53:39.991Z,6.71
2017-12-25T05:54:39.939Z,6.68
2017-12-25T05:55:39.899Z,6.63
2017-12-25T05:56:39.864Z,6.61
2017-12-25T05:57:39.809Z,6.71
2017-12-25T05:58:39.767Z,6.65
2017-12-25T05:59:39.757Z,6.73
2017-12-25T06:00:39.686Z,6.68
2017-12-25T06:01:39.634Z,6.59
2017-12-25T06:02:39.591Z,6.63
2017-12-25T06:03:39.544Z,6.62
2017-12-25T06:04:39.492Z,6.65
2017-12-25T06:05:39.461Z,6.53
2017-12-25T06:06:39.417Z,6.65
2017-12-25T06:07:39.367Z,6.71
2017-12-25T06:08:39.327Z,6.63
2017-12-25T06:09:39.294Z,6.65
2017-12-25T06:10:39.244Z,6.66
2017-12-25T06:11:39.211Z,6.68
2017-12-25T06:12:39.151Z,6.65
2017-12-25T06:13:39.133Z,6.65
2017-12-25T06:14:39.083Z,6.61
2017-12-25T06:15:39.892Z,6.65
2017-12-25T06:16:39.009Z,6.62
2017-12-25T06:17:38.937Z,6.63
2017-12-25T06:18:38.906Z,6.68
2017-12-25T06:19:38.857Z,6.65
2017-12-25T06:20:38.826Z,6.63
2017-12-25T06:21:38.764Z,6.72
2017-12-25T06:22:38.732Z,6.54
2017-12-25T06:23:38.691Z,6.63
2017-12-25T06:24:38.651Z,6.59
2017-12-25T06:25:38.600Z,6.53
2017-12-25T06:26:38.561Z,6.50
2017-12-25T06:27:38.616Z,6.51
2017-12-25T06:28:38.484Z,6.58
2017-12-25T06:29:38.436Z,6.62
2017-12-25T06:30:38.378Z,6.66
2017-12-25T06:31:38.345Z,6.59
2017-12-25T06:32:38.340Z,6.61
2017-12-25T06:33:38.263Z,6.53
2017-12-25T06:34:38.207Z,6.54
2017-12-25T06:35:38.160Z,6.54
2017-12-25T06:36:38.145Z,6.47
2017-12-25T06:37:38.148Z,6.68
2017-12-25T06:38:38.032Z,6.56
2017-12-25T06:39:37.993Z,6.53
2017-12-25T06:40:37.939Z,6.61
2017-12-25T06:41:37.904Z,6.54
2017-12-25T06:42:37.859Z,6.54
2017-12-25T06:43:37.829Z,6.51
2017-12-25T06:44:37.776Z,6.53
2017-12-25T06:45:37.807Z,6.51
2017-12-25T06:46:37.686Z,6.53
2017-12-25T06:47:37.643Z,6.50
2017-12-25T06:48:37.602Z,6.61
2017-12-25T06:49:37.585Z,6.54
2017-12-25T06:50:37.552Z,6.54
2017-12-25T06:51:37.478Z,6.51
2017-12-25T06:52:37.424Z,6.51
2017-12-25T06:53:37.401Z,6.51
2017-12-25T06:54:37.390Z,6.51
2017-12-25T06:55:37.312Z,6.54
2017-12-25T06:56:37.275Z,6.56
2017-12-25T06:57:37.241Z,6.54
2017-12-25T06:58:37.194Z,6.48
2017-12-25T06:59:37.144Z,6.50
2017-12-25T07:00:37.103Z,6.46
2017-12-25T07:01:37.046Z,6.54
2017-12-25T07:02:37.012Z,6.54
2017-12-25T07:03:36.975Z,6.48
2017-12-25T07:04:36.999Z,6.50
2017-12-25T07:05:36.881Z,6.44
2017-12-25T07:06:36.837Z,6.47
2017-12-25T07:07:36.785Z,6.53
2017-12-25T07:08:36.765Z,6.56
2017-12-25T07:09:36.699Z,6.48
2017-12-25T07:10:36.662Z,6.43
2017-12-25T07:11:36.617Z,6.61
2017-12-25T07:12:36.592Z,6.59
2017-12-25T07:13:36.545Z,6.54
2017-12-25T07:14:36.492Z,6.50
2017-12-25T07:15:36.467Z,6.46
2017-12-25T07:16:36.438Z,6.43
2017-12-25T07:17:36.388Z,6.50
2017-12-25T07:18:36.364Z,6.43
2017-12-25T07:19:36.265Z,6.50
2017-12-25T07:20:36.243Z,6.50
2017-12-25T07:21:36.198Z,6.51
2017-12-25T07:22:36.145Z,6.48
2017-12-25T07:23:36.108Z,6.44
2017-12-25T07:24:36.083Z,6.58
2017-12-25T07:25:36.044Z,6.48
2017-12-25T07:26:36.014Z,6.56
2017-12-25T07:27:35.950Z,6.53
2017-12-25T07:28:35.909Z,6.54
2017-12-25T07:29:35.845Z,6.62
2017-12-25T07:30:36.210Z,6.56
2017-12-25T07:31:36.391Z,6.51
2017-12-25T07:32:36.351Z,6.46
2017-12-25T07:33:35.721Z,6.50
2017-12-25T07:34:35.645Z,6.53
2017-12-25T07:35:35.588Z,6.54
2017-12-25T07:36:35.564Z,6.48
2017-12-25T07:37:35.588Z,6.50
2017-12-25T07:38:35.462Z,6.59
2017-12-25T07:39:35.403Z,6.46
2017-12-25T07:40:35.375Z,6.56
2017-12-25T07:41:35.332Z,6.58
2017-12-25T07:42:35.294Z,6.40
2017-12-25T07:43:35.230Z,6.56
2017-12-25T07:44:35.196Z,6.48
2017-12-25T07:45:35.136Z,6.62
2017-12-25T07:46:35.135Z,6.51
2017-12-25T07:47:35.068Z,6.50
2017-12-25T07:48:35.130Z,6.44
2017-12-25T07:49:35.030Z,6.51
2017-12-25T07:50:35.009Z,6.63
2017-12-25T07:51:34.894Z,6.61
2017-12-25T07:52:34.845Z,6.46
2017-12-25T07:53:34.852Z,6.43
2017-12-25T07:54:34.769Z,6.40
2017-12-25T07:55:34.759Z,6.48
2017-12-25T07:56:35.460Z,6.48
2017-12-25T07:57:34.711Z,6.54
2017-12-25T07:58:34.598Z,6.54
2017-12-25T07:59:34.560Z,6.44
2017-12-25T08:00:34.565Z,6.53
2017-12-25T08:01:34.631Z,6.62
2017-12-25T08:02:34.588Z,6.58
2017-12-25T08:03:34.534Z,6.58
2017-12-25T08:04:34.469Z,6.58
2017-12-25T08:05:34.340Z,6.50
2017-12-25T08:06:34.413Z,6.54
2017-12-25T08:07:34.307Z,6.51
2017-12-25T08:08:34.228Z,6.53
2017-12-25T08:09:34.183Z,6.58
2017-12-25T08:10:34.072Z,6.51
2017-12-25T08:11:34.938Z,6.62
2017-12-25T08:12:34.039Z,6.59
2017-12-25T08:13:33.935Z,6.59
2017-12-25T08:14:33.904Z,6.53
2017-12-25T08:15:33.889Z,6.54
2017-12-25T08:16:33.852Z,6.53
2017-12-25T08:17:33.778Z,6.59
2017-12-25T08:18:33.725Z,6.59
2017-12-25T08:19:33.697Z,6.61
2017-12-25T08:20:33.640Z,6.56
2017-12-25T08:21:33.618Z,6.53
2017-12-25T08:22:33.556Z,6.53
2017-12-25T08:23:33.512Z,6.61
2017-12-25T08:24:33.536Z,6.72
2017-12-25T08:25:33.420Z,6.65
2017-12-25T08:26:33.382Z,6.63
2017-12-25T08:27:33.350Z,6.58
2017-12-25T08:28:33.288Z,6.68
2017-12-25T08:29:33.272Z,6.68
2017-12-25T08:30:33.198Z,6.69
2017-12-25T08:31:33.173Z,6.66
2017-12-25T08:32:33.121Z,6.65
2017-12-25T08:33:33.080Z,6.73
2017-12-25T08:34:33.045Z,6.65
2017-12-25T08:35:33.490Z,6.71
2017-12-25T08:36:36.435Z,6.73
2017-12-25T08:37:33.010Z,6.65
2017-12-25T08:38:33.134Z,6.71
2017-12-25T08:39:35.781Z,6.63
2017-12-25T08:40:33.061Z,6.62
2017-12-25T08:41:32.884Z,6.71
2017-12-25T08:42:32.831Z,6.61
2017-12-25T08:43:32.664Z,6.76
2017-12-25T08:44:32.729Z,6.68
2017-12-25T08:45:32.650Z,6.72
2017-12-25T08:46:32.567Z,6.68
2017-12-25T08:47:32.584Z,6.66
2017-12-25T08:48:32.513Z,6.68
2017-12-25T08:49:32.505Z,6.71
2017-12-25T08:50:32.436Z,6.71
2017-12-25T08:51:32.389Z,6.73
2017-12-25T08:52:32.280Z,6.72
2017-12-25T08:53:32.315Z,6.68
2017-12-25T08:54:32.356Z,6.71
2017-12-25T08:55:32.185Z,6.79
2017-12-25T08:56:32.182Z,6.69
2017-12-25T08:57:32.122Z,6.83
2017-12-25T08:58:32.010Z,6.90
2017-12-25T08:59:31.951Z,6.86
2017-12-25T09:00:31.914Z,6.87
2017-12-25T09:01:31.886Z,6.72
2017-12-25T09:02:31.849Z,6.76
2017-12-25T09:03:31.783Z,6.69
2017-12-25T09:04:31.755Z,6.81
2017-12-25T09:05:31.718Z,6.80
2017-12-25T09:06:31.667Z,6.83
2017-12-25T09:07:31.687Z,6.73
2017-12-25T09:08:31.601Z,6.72
2017-12-25T09:09:31.542Z,6.66
2017-12-25T09:10:31.514Z,6.73
2017-12-25T09:11:31.528Z,6.77
2017-12-25T09:12:31.443Z,6.73
2017-12-25T09:13:31.451Z,6.73
2017-12-25T09:14:31.386Z,6.77
2017-12-25T09:15:31.275Z,6.77
2017-12-25T09:16:31.333Z,6.77
2017-12-25T09:17:31.223Z,6.86
2017-12-25T09:18:31.197Z,6.84
2017-12-25T09:19:31.113Z,6.84
2017-12-25T09:20:31.920Z,6.87
2017-12-25T09:21:31.064Z,6.87
2017-12-25T09:22:31.054Z,6.94
2017-12-25T09:23:30.998Z,6.97
2017-12-25T09:24:30.981Z,6.87
2017-12-25T09:25:30.902Z,6.98
2017-12-25T09:26:30.902Z,6.95
2017-12-25T09:27:30.826Z,6.98
2017-12-25T09:28:30.806Z,6.95
2017-12-25T09:29:30.779Z,6.89
2017-12-25T09:30:30.723Z,7.01
2017-12-25T09:31:30.705Z,7.01
2017-12-25T09:32:30.648Z,7.01
2017-12-25T09:33:30.639Z,6.99
2017-12-25T09:34:30.580Z,6.99
2017-12-25T09:35:30.521Z,7.05
2017-12-25T09:36:30.464Z,6.95
2017-12-25T09:37:30.452Z,6.98
2017-12-25T09:38:30.383Z,7.01
2017-12-25T09:39:30.339Z,7.01
2017-12-25T09:40:30.277Z,7.04
2017-12-25T09:41:30.223Z,7.08
2017-12-25T09:42:30.184Z,7.02
2017-12-25T09:43:30.092Z,7.12
2017-12-25T09:44:30.064Z,7.19
2017-12-25T09:45:30.958Z,7.16
2017-12-25T09:46:30.055Z,7.12
2017-12-25T09:47:29.984Z,7.15
2017-12-25T09:48:29.974Z,7.07
2017-12-25T09:49:30.034Z,7.01
2017-12-25T09:50:30.491Z,7.02
2017-12-25T09:51:29.910Z,7.07
2017-12-25T09:52:29.830Z,7.07
2017-12-25T09:53:29.772Z,7.13
2017-12-25T09:54:29.741Z,7.04
2017-12-25T09:55:29.687Z,7.02
2017-12-25T09:56:29.606Z,7.12
2017-12-25T09:57:29.568Z,7.16
2017-12-25T09:58:29.501Z,7.20
2017-12-25T09:59:29.425Z,7.29
2017-12-25T10:00:29.461Z,7.19
2017-12-25T10:01:29.360Z,7.20
2017-12-25T10:02:29.401Z,7.22
2017-12-25T10:03:29.331Z,7.22
2017-12-25T10:04:29.287Z,7.16
2017-12-25T10:05:29.278Z,7.34
2017-12-25T10:06:29.122Z,7.26
2017-12-25T10:07:29.098Z,7.29
2017-12-25T10:08:29.029Z,7.26
2017-12-25T10:09:28.992Z,7.26
2017-12-25T10:10:28.946Z,7.19
2017-12-25T10:11:28.911Z,7.15
2017-12-25T10:12:28.866Z,7.26
2017-12-25T10:13:28.812Z,7.16
2017-12-25T10:14:28.767Z,7.20
2017-12-25T10:15:28.729Z,7.20
2017-12-25T10:16:28.693Z,7.15
2017-12-25T10:17:28.667Z,7.29
2017-12-25T10:18:28.621Z,7.23
2017-12-25T10:19:28.573Z,7.24
2017-12-25T10:20:28.553Z,7.32
2017-12-25T10:21:28.526Z,7.27
2017-12-25T10:22:28.520Z,7.38
2017-12-25T10:23:28.404Z,7.52
2017-12-25T10:24:28.369Z,7.53
2017-12-25T10:25:28.333Z,7.47
2017-12-25T10:26:28.288Z,7.50
2017-12-25T10:27:28.232Z,7.47
2017-12-25T10:28:28.252Z,7.38
2017-12-25T10:29:28.183Z,7.38
2017-12-25T10:30:28.096Z,7.47
2017-12-25T10:31:28.079Z,7.50
2017-12-25T10:32:28.035Z,7.62
2017-12-25T10:33:27.989Z,7.60
2017-12-25T10:34:27.938Z,7.59
2017-12-25T10:35:27.918Z,7.63
2017-12-25T10:36:27.872Z,7.62
2017-12-25T10:37:27.817Z,7.59
2017-12-25T10:38:27.776Z,7.52
2017-12-25T10:39:27.746Z,7.44
2017-12-25T10:40:27.692Z,7.50
2017-12-25T10:41:28.930Z,7.40
2017-12-25T10:42:27.628Z,7.58
2017-12-25T10:43:27.606Z,7.52
2017-12-25T10:44:27.522Z,7.47
2017-12-25T10:45:27.497Z,7.27
2017-12-25T10:46:27.439Z,7.34
2017-12-25T10:47:27.444Z,7.40
2017-12-25T10:48:27.352Z,7.44
2017-12-25T10:49:27.374Z,7.41
2017-12-25T10:50:27.283Z,7.42
2017-12-25T10:51:27.256Z,7.45
2017-12-25T10:52:27.193Z,7.45
2017-12-25T10:53:27.182Z,7.55
2017-12-25T10:54:27.210Z,7.42
2017-12-25T10:55:27.074Z,7.42
2017-12-25T10:56:27.046Z,7.29
2017-12-25T10:57:27.010Z,7.31
2017-12-25T10:58:26.954Z,7.29
2017-12-25T10:59:26.922Z,7.44
2017-12-25T11:00:26.977Z,7.27
2017-12-25T11:01:26.864Z,7.27
2017-12-25T11:02:26.789Z,7.34
2017-12-25T11:03:26.721Z,7.35
2017-12-25T11:04:26.686Z,7.45
2017-12-25T11:05:26.665Z,7.40
2017-12-25T11:06:26.617Z,7.42
2017-12-25T11:07:26.579Z,7.49
2017-12-25T11:08:26.536Z,7.53
2017-12-25T11:09:26.500Z,7.52
2017-12-25T11:10:26.448Z,7.37
2017-12-25T11:11:26.403Z,7.50
2017-12-25T11:12:26.409Z,7.42
2017-12-25T11:13:26.348Z,7.49
2017-12-25T11:14:26.322Z,7.42
2017-12-25T11:15:26.259Z,7.32
2017-12-25T11:16:26.192Z,7.35
2017-12-25T11:17:26.161Z,7.35
2017-12-25T11:18:26.111Z,7.19
2017-12-25T11:19:26.074Z,7.17
2017-12-25T11:20:26.029Z,7.37
2017-12-25T11:21:25.991Z,7.22
2017-12-25T11:22:25.944Z,7.32
2017-12-25T11:23:25.911Z,7.35
2017-12-25T11:24:25.851Z,7.40
2017-12-25T11:25:25.823Z,7.53
2017-12-25T11:26:25.782Z,7.45
2017-12-25T11:27:25.737Z,7.41
2017-12-25T11:28:25.683Z,7.53
2017-12-25T11:29:25.647Z,7.53
2017-12-25T11:30:25.593Z,7.56
2017-12-25T11:31:25.565Z,7.52
2017-12-25T11:32:25.542Z,7.44
2017-12-25T11:33:25.484Z,7.40
2017-12-25T11:34:25.438Z,7.44
2017-12-25T11:35:25.401Z,7.34
2017-12-25T11:36:25.363Z,7.22
2017-12-25T11:37:25.309Z,7.16
2017-12-25T11:38:25.278Z,7.20
2017-12-25T11:39:25.218Z,7.19
2017-12-25T11:40:25.250Z,7.12
2017-12-25T11:41:25.149Z,7.13
2017-12-25T11:42:25.107Z,7.09
2017-12-25T11:43:25.059Z,7.05
2017-12-25T11:44:25.029Z,7.13
2017-12-25T11:45:24.978Z,7.12
2017-12-25T11:46:24.954Z,7.15
2017-12-25T11:47:25.078Z,7.29
2017-12-25T11:48:24.847Z,7.31
2017-12-25T11:49:24.815Z,7.34
2017-12-25T11:50:24.795Z,7.32
2017-12-25T11:51:24.716Z,7.19
2017-12-25T11:52:24.678Z,7.24
2017-12-25T11:53:24.642Z,7.17
2017-12-25T11:54:24.600Z,7.22
2017-12-25T11:55:24.564Z,7.31
2017-12-25T11:57:24.473Z,7.05
2017-12-25T11:58:24.435Z,7.01
2017-12-25T11:59:24.385Z,7.02
2017-12-25T12:00:24.359Z,7.04
2017-12-25T12:01:24.485Z,6.97
2017-12-25T12:02:24.268Z,7.02
2017-12-25T12:03:24.228Z,7.15
2017-12-25T12:04:24.177Z,6.98
2017-12-25T12:05:24.134Z,6.97
2017-12-25T12:06:24.115Z,6.97
2017-12-25T12:07:24.056Z,6.99
2017-12-25T12:08:24.014Z,7.01
2017-12-25T12:09:23.979Z,6.99
2017-12-25T12:10:23.926Z,6.98
2017-12-25T12:11:23.911Z,7.05
2017-12-25T12:12:23.852Z,6.97
2017-12-25T12:13:23.799Z,7.04
2017-12-25T12:14:23.773Z,7.01
2017-12-25T12:15:23.726Z,6.91
2017-12-25T12:16:23.747Z,7.01
2017-12-25T12:17:23.809Z,7.04
2017-12-25T12:18:23.584Z,7.13
2017-12-25T12:19:23.549Z,7.01
2017-12-25T12:20:23.511Z,7.07
2017-12-25T12:21:23.483Z,7.12
2017-12-25T12:22:23.443Z,7.16
2017-12-25T12:23:23.385Z,6.98
2017-12-25T12:24:23.346Z,7.01
2017-12-25T12:25:23.299Z,7.02
2017-12-25T12:26:23.261Z,7.08
2017-12-25T12:27:23.217Z,7.07
2017-12-25T12:28:23.179Z,7.13
2017-12-25T12:29:23.140Z,7.02
2017-12-25T12:30:23.105Z,6.98
2017-12-25T12:31:23.045Z,7.04
2017-12-25T12:32:23.030Z,7.04
2017-12-25T12:33:22.964Z,7.05
2017-12-25T12:34:22.928Z,7.08
2017-12-25T12:35:22.880Z,7.07
2017-12-25T12:36:22.852Z,7.04
2017-12-25T12:37:22.804Z,6.98
2017-12-25T12:38:22.760Z,6.86
2017-12-25T12:39:22.716Z,6.99
2017-12-25T12:40:22.694Z,6.91
2017-12-25T12:41:22.640Z,6.84
2017-12-25T12:42:22.607Z,6.90
2017-12-25T12:43:22.553Z,6.91
2017-12-25T12:44:22.694Z,6.95
2017-12-25T12:45:22.477Z,7.01
2017-12-25T12:46:22.424Z,6.81
2017-12-25T12:47:22.381Z,6.87
2017-12-25T12:48:22.341Z,6.84
2017-12-25T12:49:22.306Z,6.95
2017-12-25T12:50:22.271Z,6.76
2017-12-25T12:51:22.273Z,6.73
2017-12-25T12:52:22.171Z,6.90
2017-12-25T12:53:22.136Z,6.84
2017-12-25T12:54:22.086Z,6.87
2017-12-25T12:55:22.043Z,6.90
2017-12-25T12:56:22.003Z,6.95
2017-12-25T12:57:21.959Z,6.87
2017-12-25T12:58:21.920Z,6.86
2017-12-25T12:59:21.886Z,6.87
2017-12-25T13:00:21.851Z,6.86
2017-12-25T13:01:21.810Z,6.76
2017-12-25T13:02:21.751Z,6.87
2017-12-25T13:03:21.714Z,6.84
2017-12-25T13:04:21.697Z,6.77
2017-12-25T13:05:21.627Z,6.73
2017-12-25T13:06:21.574Z,6.89
2017-12-25T13:07:21.565Z,6.89
2017-12-25T13:08:21.519Z,6.73
2017-12-25T13:09:21.474Z,6.69
2017-12-25T13:10:21.437Z,6.69
2017-12-25T13:11:21.381Z,6.73
2017-12-25T13:12:21.354Z,6.69
2017-12-25T13:13:21.330Z,6.63
2017-12-25T13:14:21.299Z,6.54
2017-12-25T13:15:21.220Z,6.65
2017-12-25T13:16:21.236Z,6.54
2017-12-25T13:17:21.137Z,6.50
2017-12-25T13:18:21.083Z,6.50
2017-12-25T13:19:21.079Z,6.43